Time;durP1;ratioP1;P1;durP2;ratioP2;P2;SDS_P1;SDS_P2;PMS_P1;PMS_P2;Temp;Humidity;BMP_temperature;BMP_pressure;BME280_temperature;BME280_humidity;BME280_pressure;Samples;Min_cycle;Max_cycle;Signal;HPM_P1;HPM_P2
2023/05/22 00:00:18;;;;;;;17.30;10.00;;;17.70;99.90;;;;;;5049766;28;20029;-50
2023/05/22 00:02:43;;;;;;;18.58;9.60;;;17.70;99.90;;;;;;5052153;28;20021;-53
2023/05/22 00:05:11;;;;;;;18.20;9.52;;;17.70;99.90;;;;;;5053702;28;20462;-48
2023/05/22 00:07:38;;;;;;;16.48;9.73;;;17.60;99.90;;;;;;5053730;28;20120;-48
2023/05/22 00:10:05;;;;;;;16.17;8.68;;;17.70;99.90;;;;;;5053612;28;20029;-51
2023/05/22 00:12:31;;;;;;;15.20;8.63;;;17.70;99.90;;;;;;5053520;28;20492;-48
2023/05/22 00:14:57;;;;;;;13.98;8.60;;;17.80;99.90;;;;;;5053081;28;20021;-49
2023/05/22 00:17:24;;;;;;;15.23;8.80;;;17.90;99.90;;;;;;5053709;28;20031;-50
2023/05/22 00:19:50;;;;;;;16.38;9.30;;;17.90;99.90;;;;;;5053109;28;20470;-50
2023/05/22 00:22:16;;;;;;;16.88;9.25;;;17.90;99.90;;;;;;5052950;28;20074;-49
2023/05/22 00:24:41;;;;;;;16.25;8.77;;;17.90;99.90;;;;;;5053035;28;20538;-48
2023/05/22 00:27:07;;;;;;;17.60;9.90;;;17.90;99.90;;;;;;5053115;28;20021;-49
2023/05/22 00:29:33;;;;;;;15.85;9.20;;;17.80;99.90;;;;;;5052918;28;20087;-49
2023/05/22 00:31:59;;;;;;;14.85;9.43;;;17.80;99.90;;;;;;5051408;28;20033;-48
2023/05/22 00:34:24;;;;;;;14.73;9.05;;;17.80;99.90;;;;;;5051648;28;20095;-50
2023/05/22 00:36:50;;;;;;;15.93;9.45;;;17.80;99.90;;;;;;5052682;28;20104;-48
2023/05/22 00:39:16;;;;;;;14.68;9.38;;;17.80;99.90;;;;;;5053004;28;20044;-50
2023/05/22 00:41:41;;;;;;;13.98;9.05;;;17.80;99.90;;;;;;5052509;28;20028;-49
2023/05/22 00:44:07;;;;;;;14.45;8.63;;;17.70;99.90;;;;;;5052622;28;20021;-51
2023/05/22 00:46:33;;;;;;;15.77;8.98;;;17.70;99.90;;;;;;5051416;28;20052;-49
2023/05/22 00:48:59;;;;;;;15.43;9.70;;;17.70;99.90;;;;;;5052664;28;20036;-49
2023/05/22 00:51:25;;;;;;;17.00;9.90;;;17.70;99.90;;;;;;5052533;28;20537;-51
2023/05/22 00:53:52;;;;;;;15.38;9.82;;;17.70;99.90;;;;;;5050993;28;20057;-50
2023/05/22 00:56:18;;;;;;;14.73;9.32;;;17.70;99.90;;;;;;5052825;28;20060;-50
2023/05/22 00:58:44;;;;;;;19.05;10.35;;;17.70;99.90;;;;;;5050990;28;20037;-50
2023/05/22 01:01:10;;;;;;;14.10;8.85;;;17.80;99.90;;;;;;5052244;28;20021;-50
2023/05/22 01:03:43;;;;;;;16.90;9.82;;;17.70;99.90;;;;;;5050741;28;20029;-49
2023/05/22 01:06:13;;;;;;;17.02;9.48;;;17.70;99.90;;;;;;5052404;28;20553;-50
2023/05/22 01:08:40;;;;;;;17.73;10.27;;;17.70;99.90;;;;;;5052300;28;20029;-49
2023/05/22 01:11:24;;;;;;;17.17;10.23;;;17.70;99.90;;;;;;5051990;28;20040;-50
2023/05/22 01:14:27;;;;;;;17.42;9.40;;;17.60;99.90;;;;;;5050745;28;20446;-51
2023/05/22 01:17:33;;;;;;;18.52;10.20;;;17.60;99.90;;;;;;5052086;28;20089;-49
2023/05/22 01:20:23;;;;;;;16.60;9.95;;;17.50;99.90;;;;;;5050656;28;20029;-49
2023/05/22 01:23:10;;;;;;;18.38;10.65;;;17.50;99.90;;;;;;5050557;28;20070;-49
2023/05/22 01:25:54;;;;;;;16.33;10.02;;;17.50;99.90;;;;;;5052027;28;20428;-48
2023/05/22 01:28:41;;;;;;;17.35;10.35;;;17.40;99.90;;;;;;5051751;28;20031;-49
2023/05/22 01:31:11;;;;;;;16.48;10.10;;;17.40;99.90;;;;;;5050331;28;20048;-48
2023/05/22 01:33:50;;;;;;;15.25;9.55;;;17.40;99.90;;;;;;5050440;28;20131;-51
2023/05/22 01:36:19;;;;;;;16.48;8.70;;;17.40;99.90;;;;;;5050463;28;20072;-51
2023/05/22 01:38:45;;;;;;;16.83;9.18;;;17.40;99.90;;;;;;5050110;28;20563;-49
2023/05/22 01:41:12;;;;;;;14.95;9.15;;;17.40;99.90;;;;;;5051396;28;20028;-49
2023/05/22 01:43:38;;;;;;;17.23;9.57;;;17.40;99.90;;;;;;5050045;28;20033;-50
2023/05/22 01:46:05;;;;;;;13.90;8.23;;;17.40;99.90;;;;;;5051813;28;20029;-49
2023/05/22 01:48:31;;;;;;;15.07;8.55;;;17.40;99.90;;;;;;5051441;28;20481;-48
2023/05/22 01:51:04;;;;;;;15.20;8.32;;;17.40;99.90;;;;;;5051216;28;20107;-48
2023/05/22 01:53:35;;;;;;;15.13;8.65;;;17.40;99.90;;;;;;5033305;28;20041;-48
2023/05/22 01:56:08;;;;;;;16.65;9.48;;;17.40;99.90;;;;;;5050182;28;20033;-49
2023/05/22 01:58:59;;;;;;;13.30;8.38;;;17.40;99.90;;;;;;5049793;28;20497;-49
2023/05/22 02:01:29;;;;;;;14.55;8.25;;;17.40;99.90;;;;;;5049682;28;20079;-49
2023/05/22 02:03:57;;;;;;;14.10;8.10;;;17.40;99.90;;;;;;5049734;28;20021;-50
2023/05/22 02:06:25;;;;;;;16.27;8.10;;;17.40;99.90;;;;;;5049808;28;20025;-52
2023/05/22 02:08:53;;;;;;;14.15;8.23;;;17.30;99.90;;;;;;5049897;28;20508;-48
2023/05/22 02:11:21;;;;;;;12.32;7.43;;;17.30;99.90;;;;;;5049502;28;20033;-49
2023/05/22 02:13:48;;;;;;;12.18;7.63;;;17.30;99.90;;;;;;5049583;28;20040;-52
2023/05/22 02:16:14;;;;;;;14.10;7.68;;;17.30;99.90;;;;;;5051166;28;20044;-51
2023/05/22 02:18:40;;;;;;;14.15;7.95;;;17.20;99.90;;;;;;5049559;28;20029;-51
2023/05/22 02:21:09;;;;;;;12.90;8.55;;;17.20;99.90;;;;;;5049569;28;20032;-51
2023/05/22 02:23:36;;;;;;;14.75;8.80;;;17.20;99.90;;;;;;5049353;28;20401;-52
2023/05/22 02:26:03;;;;;;;13.15;8.30;;;17.20;99.90;;;;;;5050477;28;20397;-52
2023/05/22 02:28:29;;;;;;;15.05;8.45;;;17.10;99.90;;;;;;5050826;28;20028;-50
2023/05/22 02:30:55;;;;;;;14.30;8.13;;;17.10;99.90;;;;;;5049261;28;20035;-48
2023/05/22 02:33:21;;;;;;;11.65;7.40;;;17.10;99.90;;;;;;5050443;28;20508;-49
2023/05/22 02:35:49;;;;;;;12.90;7.78;;;17.10;99.90;;;;;;5049503;28;20036;-49
2023/05/22 02:38:15;;;;;;;14.57;9.15;;;17.10;99.90;;;;;;5050540;28;20051;-49
2023/05/22 02:40:41;;;;;;;16.45;8.15;;;17.10;99.90;;;;;;5049085;28;20021;-48
2023/05/22 02:43:06;;;;;;;16.60;8.48;;;17.10;99.90;;;;;;5049067;28;20498;-50
2023/05/22 02:45:32;;;;;;;12.95;8.38;;;17.10;99.90;;;;;;5049412;28;20025;-49
2023/05/22 02:48:00;;;;;;;12.90;7.90;;;17.10;99.90;;;;;;5049331;28;20025;-48
2023/05/22 02:50:26;;;;;;;12.23;7.53;;;17.00;99.90;;;;;;5049157;28;20057;-49
2023/05/22 02:52:52;;;;;;;15.05;8.25;;;17.10;99.90;;;;;;5050450;28;20055;-48
2023/05/22 02:55:18;;;;;;;15.85;9.02;;;17.00;99.90;;;;;;5050682;28;20072;-50
2023/05/22 02:57:43;;;;;;;17.42;8.55;;;17.00;99.90;;;;;;5049323;28;20517;-49
2023/05/22 03:00:10;;;;;;;15.13;9.05;;;17.00;99.90;;;;;;5049376;28;20032;-48
2023/05/22 03:02:37;;;;;;;13.57;8.60;;;16.90;99.90;;;;;;5049167;28;20528;-50
2023/05/22 03:05:04;;;;;;;14.95;8.77;;;16.90;99.90;;;;;;5049560;28;20071;-49
2023/05/22 03:07:30;;;;;;;15.55;9.00;;;16.80;99.90;;;;;;5050825;28;20033;-48
2023/05/22 03:09:56;;;;;;;14.50;8.85;;;16.80;99.90;;;;;;5050677;28;20029;-48
2023/05/22 03:12:22;;;;;;;16.77;9.85;;;16.70;99.90;;;;;;5050262;28;20036;-48
2023/05/22 03:14:48;;;;;;;15.55;9.48;;;16.60;99.90;;;;;;5048900;28;20036;-49
2023/05/22 03:17:14;;;;;;;19.20;9.98;;;16.70;99.90;;;;;;5050467;28;20033;-49
2023/05/22 03:19:40;;;;;;;19.48;11.23;;;16.60;99.90;;;;;;5048936;28;20131;-48
2023/05/22 03:22:06;;;;;;;19.92;11.57;;;16.60;99.90;;;;;;5048786;28;20173;-48
2023/05/22 03:24:33;;;;;;;26.55;12.18;;;16.60;99.90;;;;;;5048918;28;20041;-50
2023/05/22 03:26:59;;;;;;;23.33;12.45;;;16.60;99.90;;;;;;5049397;28;20358;-49
2023/05/22 03:29:37;;;;;;;23.45;12.23;;;16.60;99.90;;;;;;5048946;28;20052;-48
2023/05/22 03:32:03;;;;;;;23.52;12.18;;;16.60;99.90;;;;;;5050008;28;20501;-48
2023/05/22 03:34:31;;;;;;;17.77;11.18;;;16.60;99.90;;;;;;5048819;28;20092;-49
2023/05/22 03:36:58;;;;;;;20.42;11.50;;;16.50;99.90;;;;;;5049905;28;20456;-49
2023/05/22 03:39:24;;;;;;;23.65;11.68;;;16.50;99.90;;;;;;5052620;28;20045;-49
2023/05/22 03:41:57;;;;;;;20.95;11.90;;;16.50;99.90;;;;;;5052585;28;20052;-48
2023/05/22 03:44:24;;;;;;;20.35;11.07;;;16.50;99.90;;;;;;5052347;28;20100;-50
2023/05/22 03:46:50;;;;;;;20.40;11.05;;;16.50;99.90;;;;;;5052533;28;20453;-50
2023/05/22 03:49:16;;;;;;;22.38;11.13;;;16.50;99.90;;;;;;5052649;28;20033;-50
2023/05/22 03:51:41;;;;;;;20.15;11.40;;;16.40;99.90;;;;;;5053536;28;20025;-50
2023/05/22 03:54:07;;;;;;;21.80;12.18;;;16.40;99.90;;;;;;5052145;28;20025;-48
2023/05/22 03:56:34;;;;;;;18.52;10.70;;;16.30;99.90;;;;;;5053540;28;20032;-49
2023/05/22 03:59:01;;;;;;;19.20;11.05;;;16.30;99.90;;;;;;5052351;28;20060;-50
2023/05/22 04:01:28;;;;;;;20.83;11.82;;;16.20;99.90;;;;;;5053307;28;20017;-48
2023/05/22 04:03:55;;;;;;;18.25;9.90;;;16.20;99.90;;;;;;5053488;28;20094;-50
2023/05/22 04:06:20;;;;;;;17.52;9.70;;;16.20;99.90;;;;;;5053616;28;20502;-48
2023/05/22 04:08:47;;;;;;;17.33;10.07;;;16.20;99.90;;;;;;5053366;28;20481;-49
2023/05/22 04:11:14;;;;;;;17.55;10.52;;;16.20;99.90;;;;;;5051994;28;20183;-49
2023/05/22 04:13:44;;;;;;;16.35;9.68;;;16.20;99.90;;;;;;5053076;28;20087;-50
2023/05/22 04:16:10;;;;;;;16.92;9.57;;;16.10;99.90;;;;;;5053442;28;20037;-49
2023/05/22 04:18:36;;;;;;;17.42;9.70;;;16.20;99.90;;;;;;5053197;28;20386;-49
2023/05/22 04:21:03;;;;;;;17.40;9.27;;;16.20;99.90;;;;;;5051628;28;20033;-53
2023/05/22 04:23:28;;;;;;;16.77;10.07;;;16.10;99.90;;;;;;5052898;28;20021;-51
2023/05/22 04:25:54;;;;;;;17.23;9.35;;;16.10;99.90;;;;;;5053394;28;20017;-52
2023/05/22 04:28:22;;;;;;;19.08;10.07;;;16.10;99.90;;;;;;5051722;28;20179;-51
2023/05/22 04:30:48;;;;;;;16.23;9.40;;;16.10;99.90;;;;;;5051560;28;20127;-50
2023/05/22 04:33:15;;;;;;;19.60;9.80;;;16.10;99.90;;;;;;5051511;28;20194;-50
2023/05/22 04:35:41;;;;;;;17.30;9.60;;;16.10;99.90;;;;;;5052957;28;20052;-49
2023/05/22 04:38:06;;;;;;;17.25;9.65;;;16.10;99.90;;;;;;5052655;28;20071;-49
2023/05/22 04:40:33;;;;;;;17.17;10.38;;;16.00;99.90;;;;;;5052966;28;20493;-49
2023/05/22 04:43:00;;;;;;;18.58;9.70;;;16.10;99.90;;;;;;5052651;28;20089;-50
2023/05/22 04:45:27;;;;;;;17.65;9.85;;;16.10;99.90;;;;;;5052760;28;20473;-48
2023/05/22 04:47:58;;;;;;;17.88;10.52;;;16.10;99.90;;;;;;5050962;28;20029;-48
2023/05/22 04:50:25;;;;;;;21.45;10.48;;;16.10;99.90;;;;;;5051076;28;20395;-50
2023/05/22 04:52:52;;;;;;;18.48;10.35;;;16.10;99.90;;;;;;5050849;28;20040;-49
2023/05/22 04:55:18;;;;;;;19.20;10.70;;;16.10;99.90;;;;;;5051102;28;20470;-49
2023/05/22 04:57:44;;;;;;;17.40;9.68;;;16.10;99.90;;;;;;5051139;28;20086;-50
2023/05/22 05:00:11;;;;;;;17.48;10.60;;;16.10;99.90;;;;;;5052151;28;20087;-49
2023/05/22 05:02:38;;;;;;;17.30;10.70;;;16.10;99.90;;;;;;5051111;28;20033;-50
2023/05/22 05:05:04;;;;;;;19.13;10.23;;;16.20;99.90;;;;;;5050909;28;20582;-54
2023/05/22 05:07:29;;;;;;;18.60;10.43;;;16.20;99.90;;;;;;5050901;28;20052;-48
2023/05/22 05:09:56;;;;;;;18.67;10.65;;;16.20;99.90;;;;;;5051030;28;20035;-48
2023/05/22 05:12:21;;;;;;;17.25;9.75;;;16.20;99.90;;;;;;5050699;28;20440;-48
2023/05/22 05:14:47;;;;;;;14.65;9.65;;;16.20;99.90;;;;;;5050182;28;20033;-47
2023/05/22 05:17:14;;;;;;;18.23;10.73;;;16.30;99.90;;;;;;5050616;28;20111;-50
2023/05/22 05:19:40;;;;;;;17.17;9.77;;;16.30;99.90;;;;;;5052102;28;20116;-49
2023/05/22 05:22:05;;;;;;;19.05;10.85;;;16.30;99.90;;;;;;5050313;28;20055;-49
2023/05/22 05:24:31;;;;;;;15.65;9.68;;;16.30;99.90;;;;;;5050685;28;20028;-49
2023/05/22 05:26:57;;;;;;;17.90;10.57;;;16.40;99.90;;;;;;5050760;28;20021;-50
2023/05/22 05:29:23;;;;;;;19.55;10.55;;;16.40;99.90;;;;;;5050654;28;20059;-49
2023/05/22 05:31:56;;;;;;;17.45;9.88;;;16.50;99.90;;;;;;5050360;28;20033;-47
2023/05/22 05:34:31;;;;;;;18.95;10.50;;;16.40;99.90;;;;;;5050435;28;20040;-50
2023/05/22 05:37:05;;;;;;;16.48;9.48;;;16.50;99.90;;;;;;5050404;28;20083;-49
2023/05/22 05:39:31;;;;;;;18.92;10.27;;;16.60;99.90;;;;;;5050481;28;20144;-49
2023/05/22 05:41:59;;;;;;;17.88;10.43;;;16.70;99.90;;;;;;5050235;28;20029;-49
2023/05/22 05:44:25;;;;;;;15.82;9.00;;;16.70;99.90;;;;;;5050276;28;20021;-51
2023/05/22 05:46:52;;;;;;;18.55;9.40;;;16.80;99.90;;;;;;5050534;28;20329;-49
2023/05/22 05:49:19;;;;;;;21.77;11.35;;;17.00;99.90;;;;;;5050565;28;20029;-48
2023/05/22 05:51:45;;;;;;;19.90;11.88;;;17.10;99.90;;;;;;5033615;28;20167;-48
2023/05/22 05:54:11;;;;;;;19.90;11.48;;;17.10;99.90;;;;;;5050199;28;20493;-50
2023/05/22 05:56:38;;;;;;;21.35;11.50;;;17.20;99.90;;;;;;5050281;28;20127;-48
2023/05/22 05:59:03;;;;;;;22.73;12.02;;;17.20;99.90;;;;;;5049530;28;20148;-48
2023/05/22 06:01:37;;;;;;;19.65;11.90;;;17.30;99.90;;;;;;5050988;28;20036;-50
2023/05/22 06:04:04;;;;;;;21.97;12.70;;;17.40;99.90;;;;;;5050119;28;20389;-50
2023/05/22 06:06:38;;;;;;;23.63;13.80;;;17.60;99.90;;;;;;5049961;28;20025;-51
2023/05/22 06:09:10;;;;;;;24.08;13.60;;;17.60;99.90;;;;;;5051400;28;20037;-50
2023/05/22 06:11:54;;;;;;;20.90;12.55;;;17.70;99.90;;;;;;5050972;28;20048;-53
2023/05/22 06:14:21;;;;;;;22.67;12.88;;;17.80;99.90;;;;;;5049640;28;20029;-49
2023/05/22 06:16:47;;;;;;;21.70;11.45;;;17.90;99.90;;;;;;5051282;28;20298;-51
2023/05/22 06:19:13;;;;;;;20.50;12.55;;;18.00;99.90;;;;;;5049670;28;20029;-51
2023/05/22 06:21:40;;;;;;;26.23;14.27;;;18.10;99.90;;;;;;5050695;28;20104;-50
2023/05/22 06:24:06;;;;;;;26.52;15.73;;;18.20;99.90;;;;;;5050788;28;20438;-50
2023/05/22 06:26:33;;;;;;;26.23;14.07;;;18.30;99.90;;;;;;5049431;28;20135;-51
2023/05/22 06:28:58;;;;;;;24.88;14.07;;;18.50;99.90;;;;;;5051076;28;20216;-52
2023/05/22 06:31:24;;;;;;;29.55;16.42;;;18.80;99.90;;;;;;5049251;28;20461;-50
2023/05/22 06:33:54;;;;;;;30.17;15.68;;;18.90;99.90;;;;;;5049432;28;20033;-49
2023/05/22 06:36:22;;;;;;;28.70;15.73;;;19.00;99.90;;;;;;5049478;28;20086;-49
2023/05/22 06:38:48;;;;;;;25.60;13.52;;;19.10;99.90;;;;;;5049388;28;20033;-53
2023/05/22 06:41:40;;;;;;;28.48;15.27;;;19.20;99.90;;;;;;5041709;28;20057;-52
2023/05/22 06:44:09;;;;;;;31.30;16.25;;;19.50;99.90;;;;;;5049161;28;20028;-50
2023/05/22 06:46:37;;;;;;;30.60;15.65;;;19.60;99.90;;;;;;5049350;28;20037;-51
2023/05/22 06:49:04;;;;;;;38.85;20.08;;;19.70;99.90;;;;;;5049372;28;20120;-48
2023/05/22 06:51:37;;;;;;;49.00;22.35;;;19.80;99.90;;;;;;5048807;28;20029;-52
2023/05/22 06:54:08;;;;;;;35.63;17.10;;;19.90;99.90;;;;;;5049051;28;20025;-53
2023/05/22 06:56:35;;;;;;;27.42;14.93;;;19.90;99.90;;;;;;5049377;28;20025;-48
2023/05/22 06:59:08;;;;;;;26.25;14.65;;;19.90;99.90;;;;;;5049113;28;20036;-51
2023/05/22 07:01:57;;;;;;;22.83;13.25;;;19.90;99.90;;;;;;5039691;28;20029;-51
2023/05/22 07:04:34;;;;;;;21.42;12.68;;;20.00;99.90;;;;;;5048971;28;20083;-50
2023/05/22 07:07:05;;;;;;;23.08;13.13;;;20.10;99.90;;;;;;5049155;28;20389;-52
2023/05/22 07:09:33;;;;;;;24.05;13.63;;;20.10;99.90;;;;;;5049153;28;20029;-52
2023/05/22 07:12:01;;;;;;;25.55;14.55;;;20.20;99.90;;;;;;5051719;28;20123;-51
2023/05/22 07:14:27;;;;;;;24.90;14.55;;;20.20;99.90;;;;;;5052937;28;20029;-49
2023/05/22 07:16:55;;;;;;;21.35;12.88;;;20.20;99.90;;;;;;5053209;28;20501;-52
2023/05/22 07:19:25;;;;;;;22.00;13.18;;;20.30;99.90;;;;;;5054284;28;20025;-53
2023/05/22 07:21:53;;;;;;;25.38;13.88;;;20.40;99.90;;;;;;5052766;28;20051;-49
2023/05/22 07:24:20;;;;;;;24.80;14.18;;;20.30;99.90;;;;;;5052906;28;20029;-53
2023/05/22 07:26:46;;;;;;;24.60;15.23;;;20.40;99.90;;;;;;5052963;28;20025;-53
2023/05/22 07:29:15;;;;;;;23.25;13.98;;;20.60;99.90;;;;;;5052749;28;20048;-53
2023/05/22 07:31:43;;;;;;;23.33;14.20;;;20.60;99.90;;;;;;5052635;28;20025;-51
2023/05/22 07:34:10;;;;;;;28.05;16.85;;;20.70;99.90;;;;;;5052500;28;20033;-49
2023/05/22 07:36:36;;;;;;;28.23;16.63;;;20.70;99.90;;;;;;5052497;28;20140;-52
2023/05/22 07:39:03;;;;;;;28.38;16.25;;;20.70;99.90;;;;;;5052682;28;20040;-53
2023/05/22 07:41:31;;;;;;;24.70;15.20;;;20.70;99.90;;;;;;5052410;28;20394;-49
2023/05/22 07:43:57;;;;;;;25.23;15.82;;;20.70;99.90;;;;;;5052717;28;20025;-49
2023/05/22 07:46:28;;;;;;;31.38;17.42;;;20.60;99.90;;;;;;5052597;28;20055;-53
2023/05/22 07:48:59;;;;;;;32.95;18.75;;;20.50;99.90;;;;;;5052416;28;20029;-53
2023/05/22 07:51:25;;;;;;;35.95;19.35;;;20.40;99.90;;;;;;5052182;28;20384;-49
2023/05/22 07:53:52;;;;;;;34.90;19.45;;;20.50;99.90;;;;;;5052301;28;20120;-50
2023/05/22 07:56:18;;;;;;;32.65;19.42;;;20.50;99.90;;;;;;5053406;28;20068;-53
2023/05/22 07:58:47;;;;;;;34.83;20.38;;;20.40;99.90;;;;;;5052002;28;20024;-50
2023/05/22 08:01:15;;;;;;;33.90;19.80;;;20.20;99.90;;;;;;5051849;28;20017;-51
2023/05/22 08:03:41;;;;;;;29.77;18.13;;;20.30;99.90;;;;;;5052981;28;20029;-51
2023/05/22 08:06:07;;;;;;;34.72;20.30;;;20.10;99.90;;;;;;5053234;28;20577;-50
2023/05/22 08:08:33;;;;;;;35.78;19.50;;;20.10;99.90;;;;;;5053430;28;20385;-49
2023/05/22 08:10:59;;;;;;;34.55;19.38;;;20.20;99.90;;;;;;5053572;28;20031;-48
2023/05/22 08:13:25;;;;;;;36.72;19.60;;;20.10;99.90;;;;;;5053551;28;20063;-50
2023/05/22 08:15:50;;;;;;;37.63;20.75;;;20.10;99.90;;;;;;5053637;28;20036;-51
2023/05/22 08:18:16;;;;;;;33.08;19.10;;;20.00;99.90;;;;;;5053171;28;20054;-53
2023/05/22 08:20:42;;;;;;;32.83;19.35;;;19.90;99.90;;;;;;5053135;28;20029;-48
2023/05/22 08:23:08;;;;;;;33.33;19.85;;;19.90;99.90;;;;;;5052056;28;20025;-51
2023/05/22 08:25:33;;;;;;;35.08;20.67;;;19.70;99.90;;;;;;5053106;28;20497;-50
2023/05/22 08:27:59;;;;;;;42.55;22.70;;;19.50;99.90;;;;;;5053299;28;20029;-49
2023/05/22 08:30:25;;;;;;;40.13;21.85;;;19.30;99.90;;;;;;5052829;28;20061;-54
2023/05/22 08:32:50;;;;;;;44.20;22.88;;;19.20;99.90;;;;;;5052873;28;20032;-51
2023/05/22 08:35:16;;;;;;;66.88;29.80;;;19.20;99.90;;;;;;5052937;28;20032;-49
2023/05/22 08:37:43;;;;;;;55.25;27.98;;;19.10;99.90;;;;;;5052834;28;20048;-49
2023/05/22 08:40:13;;;;;;;46.85;24.10;;;19.10;99.90;;;;;;5052522;28;20041;-50
2023/05/22 08:42:39;;;;;;;44.78;22.45;;;19.10;99.90;;;;;;5052883;28;20020;-50
2023/05/22 08:45:05;;;;;;;53.47;25.77;;;19.00;99.90;;;;;;5052793;28;20100;-50
2023/05/22 08:47:35;;;;;;;57.45;27.92;;;19.00;99.90;;;;;;5052745;28;20025;-51
2023/05/22 08:50:02;;;;;;;45.10;22.55;;;18.90;99.90;;;;;;5052632;28;20061;-49
2023/05/22 08:52:45;;;;;;;42.05;22.10;;;19.10;99.90;;;;;;5052569;28;20044;-49
2023/05/22 08:55:11;;;;;;;46.10;21.50;;;19.20;99.90;;;;;;5052519;28;20033;-50
2023/05/22 08:57:37;;;;;;;45.15;21.77;;;19.20;99.90;;;;;;5052569;28;20162;-50
2023/05/22 09:00:03;;;;;;;41.30;22.83;;;19.20;99.90;;;;;;5052263;28;20056;-49
2023/05/22 09:02:30;;;;;;;39.65;21.45;;;19.10;99.90;;;;;;5052440;28;20029;-49
2023/05/22 09:04:56;;;;;;;46.42;26.55;;;19.00;99.90;;;;;;5052428;28;20083;-53
2023/05/22 09:07:22;;;;;;;58.38;30.80;;;18.80;99.90;;;;;;5052673;28;20033;-49
2023/05/22 09:09:48;;;;;;;58.35;30.30;;;18.70;99.90;;;;;;5052520;28;20102;-48
2023/05/22 09:12:14;;;;;;;61.35;29.58;;;18.70;99.90;;;;;;5052147;28;20438;-50
2023/05/22 09:14:41;;;;;;;49.80;26.08;;;18.50;99.90;;;;;;5051985;28;20033;-51
2023/05/22 09:17:10;;;;;;;42.20;22.92;;;18.40;99.90;;;;;;5051930;28;20021;-48
2023/05/22 09:19:36;;;;;;;38.03;21.98;;;18.30;99.90;;;;;;5051982;28;20057;-51
2023/05/22 09:22:05;;;;;;;35.85;19.83;;;18.20;99.90;;;;;;5051801;28;20056;-48
2023/05/22 09:24:43;;;;;;;40.50;21.40;;;18.30;99.90;;;;;;5051795;28;20021;-49
2023/05/22 09:27:10;;;;;;;52.60;26.83;;;18.30;99.90;;;;;;5052092;28;20053;-51
2023/05/22 09:29:50;;;;;;;42.05;21.83;;;18.20;99.90;;;;;;5051895;28;20091;-50
2023/05/22 09:32:16;;;;;;;36.70;19.80;;;18.40;99.90;;;;;;5051431;28;20093;-50
2023/05/22 09:34:43;;;;;;;37.63;20.92;;;18.40;99.90;;;;;;5051548;28;20037;-50
2023/05/22 09:37:11;;;;;;;35.03;19.65;;;18.60;99.90;;;;;;5051617;28;20029;-51
2023/05/22 09:39:43;;;;;;;39.15;21.10;;;18.60;99.90;;;;;;5051630;28;20385;-51
2023/05/22 09:42:13;;;;;;;41.83;21.75;;;18.50;99.90;;;;;;5051455;28;20473;-48
2023/05/22 09:44:41;;;;;;;39.47;21.10;;;18.50;99.90;;;;;;5051393;28;20028;-50
2023/05/22 09:47:08;;;;;;;39.90;22.45;;;18.60;99.90;;;;;;5051412;28;20036;-50
2023/05/22 09:49:42;;;;;;;42.25;21.67;;;18.50;99.90;;;;;;5051579;28;20025;-50
2023/05/22 09:52:08;;;;;;;41.00;21.60;;;18.50;99.90;;;;;;5051196;28;20116;-49
2023/05/22 09:54:39;;;;;;;41.35;21.38;;;18.70;99.90;;;;;;5051350;28;20040;-52
2023/05/22 09:57:08;;;;;;;39.97;22.15;;;19.00;99.90;;;;;;5051399;28;20033;-51
2023/05/22 09:59:38;;;;;;;34.83;19.55;;;19.10;99.90;;;;;;5051251;28;20033;-48
2023/05/22 10:02:05;;;;;;;43.70;23.23;;;19.30;99.90;;;;;;5051052;28;20513;-52
2023/05/22 10:04:32;;;;;;;42.47;23.48;;;19.30;99.90;;;;;;5051229;28;20393;-49
2023/05/22 10:07:02;;;;;;;53.28;25.60;;;19.20;99.90;;;;;;5051350;28;20029;-51
2023/05/22 10:09:32;;;;;;;50.50;24.70;;;19.10;99.90;;;;;;5051106;28;20409;-50
2023/05/22 10:12:04;;;;;;;46.28;21.33;;;19.20;99.90;;;;;;5051220;28;20040;-49
2023/05/22 10:14:33;;;;;;;34.90;19.27;;;19.40;99.90;;;;;;5051132;28;20375;-51
2023/05/22 10:17:03;;;;;;;37.13;18.95;;;19.60;99.90;;;;;;5051148;28;20444;-53
2023/05/22 10:19:31;;;;;;;32.88;17.90;;;19.60;99.90;;;;;;5051279;28;20040;-50
2023/05/22 10:21:59;;;;;;;33.20;18.80;;;19.70;99.90;;;;;;5051025;28;20427;-53
2023/05/22 10:24:25;;;;;;;32.25;20.27;;;19.80;99.90;;;;;;5050637;28;20441;-52
2023/05/22 10:26:53;;;;;;;33.60;18.17;;;20.00;99.90;;;;;;5051191;28;20079;-49
2023/05/22 10:29:24;;;;;;;37.90;21.35;;;20.20;99.90;;;;;;5050974;28;20055;-50
2023/05/22 10:32:03;;;;;;;37.13;20.20;;;20.40;99.90;;;;;;5049390;28;20509;-49
2023/05/22 10:34:55;;;;;;;32.90;19.05;;;20.40;99.90;;;;;;5049220;28;20036;-52
2023/05/22 10:37:34;;;;;;;30.63;18.00;;;20.40;99.90;;;;;;5050703;28;20029;-50
2023/05/22 10:40:04;;;;;;;30.77;17.70;;;20.60;99.90;;;;;;5050593;28;20091;-51
2023/05/22 10:42:33;;;;;;;30.23;17.35;;;20.50;99.90;;;;;;5050489;28;20033;-50
2023/05/22 10:45:03;;;;;;;33.38;19.52;;;20.60;99.90;;;;;;5050211;28;20017;-50
2023/05/22 10:47:32;;;;;;;32.22;18.35;;;20.90;99.90;;;;;;5049208;28;20426;-50
2023/05/22 10:50:07;;;;;;;31.08;18.25;;;20.80;99.90;;;;;;5050645;28;20029;-52
2023/05/22 10:52:37;;;;;;;31.77;18.35;;;21.00;99.90;;;;;;5050397;28;20394;-48
2023/05/22 10:55:09;;;;;;;33.33;18.38;;;21.10;99.90;;;;;;5050320;28;20405;-49
2023/05/22 10:57:39;;;;;;;31.33;17.52;;;21.10;99.90;;;;;;5050352;28;20033;-50
2023/05/22 11:00:14;;;;;;;27.50;17.38;;;21.20;99.90;;;;;;5050289;28;20393;-48
2023/05/22 11:02:43;;;;;;;28.42;17.13;;;21.40;99.90;;;;;;5049526;28;20029;-49
2023/05/22 11:05:24;;;;;;;29.33;17.42;;;21.40;99.90;;;;;;5049147;28;20503;-50
2023/05/22 11:07:50;;;;;;;29.92;16.92;;;21.30;99.90;;;;;;5050545;28;20075;-51
2023/05/22 11:10:51;;;;;;;30.08;17.60;;;21.50;99.90;;;;;;5050182;28;20432;-49
2023/05/22 11:13:17;;;;;;;30.73;17.63;;;21.60;99.90;;;;;;5050536;28;20039;-52
2023/05/22 11:15:44;;;;;;;31.65;17.98;;;21.60;99.90;;;;;;5050532;28;20289;-49
2023/05/22 11:18:11;;;;;;;30.75;18.40;;;21.70;99.90;;;;;;5050292;28;20029;-51
2023/05/22 11:20:38;;;;;;;27.17;17.17;;;21.60;99.90;;;;;;5050229;28;20128;-51
2023/05/22 11:23:06;;;;;;;36.95;19.73;;;21.80;99.90;;;;;;5050009;28;20017;-50
2023/05/22 11:25:36;;;;;;;32.13;17.48;;;21.70;99.90;;;;;;5050528;28;20021;-52
2023/05/22 11:28:04;;;;;;;31.55;18.13;;;21.90;99.90;;;;;;5050169;28;20025;-49
2023/05/22 11:30:30;;;;;;;29.50;17.88;;;22.10;99.90;;;;;;5049821;28;20028;-50
2023/05/22 11:33:00;;;;;;;29.73;18.13;;;22.20;99.90;;;;;;5050308;28;20120;-49
2023/05/22 11:35:27;;;;;;;27.73;17.00;;;22.40;99.90;;;;;;5050373;28;20032;-51
2023/05/22 11:37:54;;;;;;;27.92;17.00;;;22.40;99.90;;;;;;5050108;28;20033;-47
2023/05/22 11:40:25;;;;;;;31.98;19.42;;;22.60;99.90;;;;;;5049851;28;20128;-47
2023/05/22 11:42:52;;;;;;;32.58;18.88;;;22.70;99.90;;;;;;5049869;28;20061;-49
2023/05/22 11:45:18;;;;;;;31.70;17.95;;;22.60;99.90;;;;;;5049899;28;20053;-48
2023/05/22 11:47:44;;;;;;;31.55;18.77;;;22.70;99.90;;;;;;5050340;28;20521;-47
2023/05/22 11:50:14;;;;;;;37.08;20.63;;;22.80;99.90;;;;;;5049943;28;20065;-47
2023/05/22 11:52:41;;;;;;;30.67;18.83;;;22.90;99.90;;;;;;5050030;28;20401;-49
2023/05/22 11:55:08;;;;;;;31.63;19.33;;;22.80;99.90;;;;;;5050377;28;20033;-47
2023/05/22 11:57:34;;;;;;;31.33;18.27;;;23.00;99.90;;;;;;5050507;28;20033;-49
2023/05/22 12:00:02;;;;;;;33.03;19.63;;;23.00;99.90;;;;;;5053409;28;20096;-47
2023/05/22 12:02:37;;;;;;;33.08;20.73;;;22.80;99.90;;;;;;5053735;28;20342;-48
2023/05/22 12:05:04;;;;;;;34.80;20.67;;;23.00;99.90;;;;;;5053560;28;20036;-47
2023/05/22 12:07:30;;;;;;;36.63;20.15;;;23.00;99.90;;;;;;5053498;28;20067;-49
2023/05/22 12:09:57;;;;;;;32.92;19.85;;;23.10;99.90;;;;;;5054023;28;20036;-49
2023/05/22 12:12:23;;;;;;;33.20;19.15;;;23.00;99.90;;;;;;5053334;28;20121;-49
2023/05/22 12:14:48;;;;;;;36.65;19.88;;;23.20;99.90;;;;;;5053387;28;20029;-48
2023/05/22 12:17:16;;;;;;;32.35;19.65;;;23.40;99.90;;;;;;5053918;28;20021;-50
2023/05/22 12:19:42;;;;;;;35.45;20.48;;;23.40;99.90;;;;;;5053534;28;20029;-47
2023/05/22 12:22:09;;;;;;;36.10;22.13;;;23.30;99.90;;;;;;5053105;28;20489;-48
2023/05/22 12:24:41;;;;;;;33.42;19.30;;;23.50;99.90;;;;;;5053160;28;20115;-47
2023/05/22 12:27:11;;;;;;;30.75;18.48;;;23.30;99.90;;;;;;5053104;28;20100;-48
2023/05/22 12:29:37;;;;;;;34.03;21.15;;;23.50;99.90;;;;;;5053218;28;20056;-49
2023/05/22 12:32:06;;;;;;;34.72;19.63;;;23.50;99.90;;;;;;5052872;28;20025;-51
2023/05/22 12:34:32;;;;;;;;;;;23.40;99.90;;;;;;5053789;28;20032;-48
2023/05/22 12:36:58;;;;;;;31.60;18.58;;;23.50;99.90;;;;;;5052985;28;19912;-47